createdAt,value
2018-07-30T00:00:21.992Z,25.72
2018-07-30T00:01:22.023Z,25.74
2018-07-30T00:02:22.064Z,25.79
2018-07-30T00:03:22.078Z,25.79
2018-07-30T00:04:22.109Z,25.74
2018-07-30T00:05:22.146Z,25.77
2018-07-30T00:06:22.156Z,25.74
2018-07-30T00:07:22.209Z,25.72
2018-07-30T00:08:22.222Z,25.83
2018-07-30T00:09:22.246Z,25.72
2018-07-30T00:10:22.274Z,25.65
2018-07-30T00:11:22.293Z,25.62
2018-07-30T00:12:22.342Z,25.64
2018-07-30T00:13:22.366Z,25.72
2018-07-30T00:14:22.377Z,25.79
2018-07-30T00:15:22.413Z,25.68
2018-07-30T00:16:22.433Z,25.62
2018-07-30T00:17:22.460Z,25.69
2018-07-30T00:18:22.497Z,25.68
2018-07-30T00:19:22.516Z,25.71
2018-07-30T00:20:22.553Z,25.71
2018-07-30T00:21:22.585Z,25.61
2018-07-30T00:22:22.601Z,25.56
2018-07-30T00:23:22.619Z,25.47
2018-07-30T00:24:22.646Z,25.59
2018-07-30T00:25:22.674Z,25.53
2018-07-30T00:26:22.710Z,25.59
2018-07-30T00:27:22.720Z,25.65
2018-07-30T00:28:22.781Z,25.59
2018-07-30T00:29:22.782Z,25.47
2018-07-30T00:30:22.811Z,25.59
2018-07-30T00:31:22.856Z,25.57
2018-07-30T00:32:22.868Z,25.59
2018-07-30T00:33:22.895Z,25.61
2018-07-30T00:34:22.922Z,25.64
2018-07-30T00:35:22.965Z,25.53
2018-07-30T00:36:22.979Z,25.47
2018-07-30T00:37:22.993Z,25.42
2018-07-30T00:38:23.037Z,25.42
2018-07-30T00:39:23.072Z,25.37
2018-07-30T00:40:23.089Z,25.46
2018-07-30T00:41:23.121Z,25.49
2018-07-30T00:42:23.129Z,25.38
2018-07-30T00:43:23.168Z,25.47
2018-07-30T00:44:23.195Z,25.38
2018-07-30T00:45:23.222Z,25.32
2018-07-30T00:46:23.259Z,25.43
2018-07-30T00:47:23.266Z,25.47
2018-07-30T00:48:23.307Z,25.49
2018-07-30T00:49:23.332Z,25.42
2018-07-30T00:50:23.354Z,25.37
2018-07-30T00:51:23.386Z,25.37
2018-07-30T00:52:23.403Z,25.30
2018-07-30T00:53:23.444Z,25.37
2018-07-30T00:54:23.470Z,25.35
2018-07-30T00:55:23.482Z,25.25
2018-07-30T00:56:23.509Z,25.47
2018-07-30T00:57:23.549Z,25.22
2018-07-30T00:58:23.564Z,25.50
2018-07-30T00:59:23.588Z,25.42
2018-07-30T01:00:23.624Z,25.16
2018-07-30T01:01:23.664Z,25.15
2018-07-30T01:02:23.682Z,25.28
2018-07-30T01:03:23.702Z,25.10
2018-07-30T01:04:23.724Z,25.28
2018-07-30T01:05:23.856Z,25.16
2018-07-30T01:06:23.814Z,25.20
2018-07-30T01:07:23.806Z,25.30
2018-07-30T01:08:23.829Z,25.27
2018-07-30T01:09:23.856Z,25.09
2018-07-30T01:10:23.881Z,25.27
2018-07-30T01:11:23.907Z,25.15
2018-07-30T01:12:23.937Z,25.15
2018-07-30T01:13:23.963Z,25.02
2018-07-30T01:14:24.022Z,25.12
2018-07-30T01:15:24.030Z,25.20
2018-07-30T01:16:24.051Z,25.20
2018-07-30T01:17:24.065Z,25.00
2018-07-30T01:18:24.093Z,24.98
2018-07-30T01:19:24.137Z,25.13
2018-07-30T01:20:24.150Z,25.01
2018-07-30T01:21:24.175Z,25.13
2018-07-30T01:22:24.205Z,25.12
2018-07-30T01:23:24.226Z,25.01
2018-07-30T01:24:24.252Z,25.01
2018-07-30T01:25:24.288Z,25.05
2018-07-30T01:26:24.303Z,25.05
2018-07-30T01:27:24.338Z,25.06
2018-07-30T01:28:24.362Z,25.09
2018-07-30T01:29:24.380Z,25.01
2018-07-30T01:30:24.422Z,25.00
2018-07-30T01:31:24.440Z,25.05
2018-07-30T01:32:24.470Z,25.02
2018-07-30T01:33:24.506Z,25.12
2018-07-30T01:34:24.517Z,25.02
2018-07-30T01:35:24.550Z,25.06
2018-07-30T01:36:24.582Z,24.94
2018-07-30T01:37:24.599Z,25.02
2018-07-30T01:38:24.624Z,25.17
2018-07-30T01:39:24.654Z,25.15
2018-07-30T01:40:24.690Z,25.10
2018-07-30T01:41:24.724Z,25.16
2018-07-30T01:42:24.729Z,25.09
2018-07-30T01:43:24.763Z,25.01
2018-07-30T01:44:24.786Z,25.19
2018-07-30T01:45:24.811Z,25.05
2018-07-30T01:46:24.864Z,25.13
2018-07-30T01:47:24.869Z,25.05
2018-07-30T01:48:24.888Z,25.06
2018-07-30T01:49:24.917Z,25.07
2018-07-30T01:50:24.937Z,25.02
2018-07-30T01:51:24.968Z,25.07
2018-07-30T01:52:25.019Z,25.20
2018-07-30T01:53:25.030Z,25.12
2018-07-30T01:54:25.065Z,25.05
2018-07-30T01:55:25.098Z,24.94
2018-07-30T01:56:25.121Z,24.90
2018-07-30T01:57:25.128Z,25.00
2018-07-30T01:58:25.160Z,24.97
2018-07-30T01:59:25.179Z,24.77
2018-07-30T02:00:25.204Z,24.69
2018-07-30T02:01:25.238Z,24.73
2018-07-30T02:02:25.335Z,24.85
2018-07-30T02:03:25.287Z,24.80
2018-07-30T02:04:25.313Z,24.90
2018-07-30T02:05:25.355Z,24.90
2018-07-30T02:06:25.376Z,24.92
2018-07-30T02:07:25.445Z,24.98
2018-07-30T02:08:25.426Z,24.79
2018-07-30T02:09:25.442Z,24.67
2018-07-30T02:10:25.473Z,24.67
2018-07-30T02:11:25.494Z,24.69
2018-07-30T02:12:25.530Z,24.68
2018-07-30T02:13:25.549Z,24.57
2018-07-30T02:14:25.578Z,24.61
2018-07-30T02:15:25.624Z,24.71
2018-07-30T02:16:25.636Z,24.61
2018-07-30T02:17:25.666Z,24.60
2018-07-30T02:18:25.685Z,24.57
2018-07-30T02:19:25.717Z,24.60
2018-07-30T02:20:25.745Z,24.68
2018-07-30T02:21:25.817Z,24.69
2018-07-30T02:22:25.806Z,24.77
2018-07-30T02:24:25.838Z,24.76
2018-07-30T02:25:25.864Z,24.87
2018-07-30T02:26:25.890Z,24.80
2018-07-30T02:27:25.917Z,24.56
2018-07-30T02:28:25.944Z,24.69
2018-07-30T02:29:25.969Z,24.75
2018-07-30T02:30:26.031Z,24.76
2018-07-30T02:31:26.028Z,24.92
2018-07-30T02:32:26.052Z,24.91
2018-07-30T02:33:26.088Z,24.95
2018-07-30T02:34:26.101Z,24.94
2018-07-30T02:35:26.127Z,24.95
2018-07-30T02:36:26.151Z,25.05
2018-07-30T02:37:26.180Z,25.09
2018-07-30T02:38:26.213Z,25.06
2018-07-30T02:39:26.228Z,24.92
2018-07-30T02:40:26.275Z,24.94
2018-07-30T02:41:26.300Z,24.79
2018-07-30T02:42:26.312Z,24.83
2018-07-30T02:43:26.411Z,24.87
2018-07-30T02:44:26.378Z,24.75
2018-07-30T02:45:26.397Z,24.87
2018-07-30T02:47:26.440Z,24.71
2018-07-30T02:48:26.464Z,24.85
2018-07-30T02:49:26.501Z,24.82
2018-07-30T02:51:26.545Z,24.75
2018-07-30T02:52:26.577Z,24.39
2018-07-30T02:53:26.599Z,24.20
2018-07-30T02:54:26.639Z,24.08
2018-07-30T02:55:26.656Z,24.35
2018-07-30T02:56:26.672Z,24.26
2018-07-30T02:57:26.765Z,24.13
2018-07-30T02:58:26.733Z,24.20
2018-07-30T02:59:26.754Z,24.34
2018-07-30T03:00:26.784Z,24.37
2018-07-30T03:01:26.804Z,24.35
2018-07-30T03:03:26.855Z,24.52
2018-07-30T03:05:26.929Z,24.39
2018-07-30T03:06:26.949Z,24.42
2018-07-30T03:07:26.971Z,24.41
2018-07-30T03:08:26.994Z,24.44
2018-07-30T03:09:27.062Z,24.49
2018-07-30T03:10:27.033Z,24.42
2018-07-30T03:11:27.071Z,24.37
2018-07-30T03:12:27.098Z,24.32
2018-07-30T03:13:27.116Z,24.49
2018-07-30T03:14:27.157Z,24.38
2018-07-30T03:15:27.184Z,24.39
2018-07-30T03:16:27.202Z,24.34
2018-07-30T03:17:27.230Z,24.23
2018-07-30T03:18:27.256Z,24.22
2018-07-30T03:19:27.280Z,24.31
2018-07-30T03:20:27.302Z,24.56
2018-07-30T03:21:27.341Z,24.37
2018-07-30T03:22:27.359Z,24.39
2018-07-30T03:23:27.381Z,24.44
2018-07-30T03:24:27.412Z,24.31
2018-07-30T03:25:27.435Z,24.17
2018-07-30T03:26:27.457Z,24.08
2018-07-30T03:27:27.488Z,24.08
2018-07-30T03:28:27.509Z,24.13
2018-07-30T03:29:27.547Z,24.07
2018-07-30T03:30:27.598Z,24.05
2018-07-30T03:31:27.587Z,24.13
2018-07-30T03:32:27.624Z,24.04
2018-07-30T03:33:27.652Z,24.02
2018-07-30T03:34:27.673Z,23.92
2018-07-30T03:35:27.687Z,23.97
2018-07-30T03:36:27.723Z,24.10
2018-07-30T03:37:27.741Z,24.08
2018-07-30T03:38:27.777Z,24.14
2018-07-30T03:39:27.797Z,24.00
2018-07-30T03:40:27.846Z,24.08
2018-07-30T03:41:27.846Z,23.92
2018-07-30T03:42:27.870Z,24.00
2018-07-30T03:43:27.906Z,23.87
2018-07-30T03:44:27.928Z,23.95
2018-07-30T03:45:27.951Z,23.90
2018-07-30T03:46:27.987Z,23.86
2018-07-30T03:47:27.995Z,23.98
2018-07-30T03:48:28.028Z,24.08
2018-07-30T03:49:28.053Z,23.92
2018-07-30T03:50:28.083Z,24.14
2018-07-30T03:51:28.133Z,24.26
2018-07-30T03:52:28.170Z,24.35
2018-07-30T03:53:28.205Z,24.31
2018-07-30T03:54:28.197Z,24.26
2018-07-30T03:55:28.203Z,24.22
2018-07-30T03:56:28.238Z,24.17
2018-07-30T03:57:28.259Z,24.02
2018-07-30T03:58:28.320Z,23.94
2018-07-30T03:59:28.368Z,23.98
2018-07-30T04:00:28.412Z,23.97
2018-07-30T04:01:28.361Z,23.92
2018-07-30T04:02:28.420Z,23.92
2018-07-30T04:03:28.424Z,23.72
2018-07-30T04:04:28.438Z,23.75
2018-07-30T04:05:28.480Z,23.87
2018-07-30T04:06:28.540Z,23.87
2018-07-30T04:07:28.517Z,24.08
2018-07-30T04:08:28.551Z,24.13
2018-07-30T04:09:28.568Z,24.02
2018-07-30T04:10:28.601Z,24.04
2018-07-30T04:11:28.623Z,23.92
2018-07-30T04:12:28.644Z,23.92
2018-07-30T04:13:28.671Z,23.77
2018-07-30T04:14:28.704Z,23.71
2018-07-30T04:15:28.717Z,23.97
2018-07-30T04:16:28.752Z,23.94
2018-07-30T04:17:28.773Z,23.82
2018-07-30T04:18:28.799Z,23.65
2018-07-30T04:20:28.856Z,23.70
2018-07-30T04:21:28.896Z,23.61
2018-07-30T04:22:28.915Z,23.68
2018-07-30T04:23:28.924Z,23.67
2018-07-30T04:24:28.972Z,23.87
2018-07-30T04:25:28.979Z,23.87
2018-07-30T04:26:29.011Z,23.98
2018-07-30T04:27:29.030Z,23.85
2018-07-30T04:28:29.095Z,23.79
2018-07-30T04:29:29.080Z,23.62
2018-07-30T04:30:29.136Z,23.62
2018-07-30T04:31:29.135Z,23.72
2018-07-30T04:33:29.182Z,23.70
2018-07-30T04:34:29.203Z,23.80
2018-07-30T04:35:29.236Z,23.72
2018-07-30T04:36:29.262Z,23.67
2018-07-30T04:37:29.295Z,23.67
2018-07-30T04:38:29.314Z,23.61
2018-07-30T04:39:29.337Z,23.71
2018-07-30T04:40:29.392Z,23.72
2018-07-30T04:41:29.385Z,23.65
2018-07-30T04:42:29.414Z,23.72
2018-07-30T04:43:29.447Z,23.65
2018-07-30T04:44:29.487Z,23.70
2018-07-30T04:45:29.489Z,23.62
2018-07-30T04:46:29.513Z,23.75
2018-07-30T04:47:29.548Z,23.70
2018-07-30T04:48:29.568Z,23.62
2018-07-30T04:49:29.595Z,23.71
2018-07-30T04:51:29.639Z,23.79
2018-07-30T04:52:29.668Z,23.77
2018-07-30T04:53:29.702Z,23.67
2018-07-30T04:54:29.729Z,23.67
2018-07-30T04:55:29.758Z,23.76
2018-07-30T04:56:29.777Z,23.65
2018-07-30T04:57:29.804Z,23.71
2018-07-30T04:58:29.821Z,23.70
2018-07-30T04:59:29.842Z,23.71
2018-07-30T05:00:29.872Z,23.72
2018-07-30T05:01:29.900Z,23.75
2018-07-30T05:02:29.919Z,23.85
2018-07-30T05:03:29.944Z,23.71
2018-07-30T05:04:29.977Z,23.71
2018-07-30T05:05:30.013Z,23.60
2018-07-30T05:06:30.059Z,23.77
2018-07-30T05:07:30.065Z,23.68
2018-07-30T05:08:30.078Z,23.76
2018-07-30T05:09:30.144Z,23.83
2018-07-30T05:10:30.132Z,23.89
2018-07-30T05:11:30.172Z,23.90
2018-07-30T05:12:30.185Z,23.85
2018-07-30T05:13:30.217Z,23.85
2018-07-30T05:14:30.232Z,23.87
2018-07-30T05:15:30.294Z,23.85
2018-07-30T05:16:30.297Z,23.90
2018-07-30T05:17:30.315Z,24.00
2018-07-30T05:18:30.354Z,24.17
2018-07-30T05:19:30.367Z,24.13
2018-07-30T05:20:30.394Z,24.17
2018-07-30T05:22:30.454Z,24.16
2018-07-30T05:23:30.461Z,24.10
2018-07-30T05:24:30.496Z,24.14
2018-07-30T05:25:30.565Z,24.13
2018-07-30T05:26:30.540Z,24.02
2018-07-30T05:27:30.571Z,24.10
2018-07-30T05:28:30.590Z,24.08
2018-07-30T05:29:30.623Z,24.05
2018-07-30T05:30:30.646Z,24.01
2018-07-30T05:31:30.700Z,24.13
2018-07-30T05:32:30.710Z,24.20
2018-07-30T05:33:30.730Z,24.16
2018-07-30T05:34:30.751Z,24.19
2018-07-30T05:35:30.797Z,24.16
2018-07-30T05:36:30.804Z,24.27
2018-07-30T05:37:30.825Z,24.20
2018-07-30T05:38:30.855Z,24.26
2018-07-30T05:39:30.890Z,24.37
2018-07-30T05:40:30.917Z,24.31
2018-07-30T05:41:30.946Z,24.31
2018-07-30T05:42:30.956Z,24.38
2018-07-30T05:43:30.998Z,24.39
2018-07-30T05:44:31.019Z,24.45
2018-07-30T05:45:31.272Z,24.32
2018-07-30T05:46:31.049Z,24.41
2018-07-30T05:47:31.081Z,24.45
2018-07-30T05:48:31.109Z,24.50
2018-07-30T05:49:31.136Z,24.54
2018-07-30T05:50:31.160Z,24.63
2018-07-30T05:51:31.185Z,24.67
2018-07-30T05:52:31.214Z,24.57
2018-07-30T05:53:31.250Z,24.52
2018-07-30T05:54:31.269Z,24.50
2018-07-30T05:55:31.310Z,24.63
2018-07-30T05:56:31.316Z,24.71
2018-07-30T05:57:31.342Z,24.73
2018-07-30T05:58:31.369Z,24.76
2018-07-30T05:59:31.416Z,24.69
2018-07-30T06:00:31.476Z,24.68
2018-07-30T06:01:31.453Z,24.67
2018-07-30T06:02:31.475Z,24.73
2018-07-30T06:03:31.494Z,24.76
2018-07-30T06:04:31.555Z,24.85
2018-07-30T06:05:31.605Z,24.90
2018-07-30T06:06:31.579Z,24.91
2018-07-30T06:07:31.605Z,24.97
2018-07-30T06:08:31.637Z,24.85
2018-07-30T06:09:31.700Z,24.85
2018-07-30T06:10:31.695Z,24.85
2018-07-30T06:11:31.713Z,24.97
2018-07-30T06:12:31.731Z,24.94
2018-07-30T06:13:31.759Z,24.94
2018-07-30T06:14:31.792Z,24.94
2018-07-30T06:15:31.808Z,24.92
2018-07-30T06:16:31.836Z,24.98
2018-07-30T06:17:31.868Z,24.94
2018-07-30T06:18:31.894Z,24.97
2018-07-30T06:19:31.924Z,24.88
2018-07-30T06:20:31.943Z,24.88
2018-07-30T06:21:31.977Z,24.88
2018-07-30T06:22:31.998Z,24.95
2018-07-30T06:23:32.024Z,24.98
2018-07-30T06:24:32.056Z,25.06
2018-07-30T06:25:32.075Z,25.07
2018-07-30T06:26:32.168Z,24.95
2018-07-30T06:27:32.145Z,24.91
2018-07-30T06:28:32.156Z,24.92
2018-07-30T06:29:32.226Z,24.91
2018-07-30T06:30:32.206Z,24.88
2018-07-30T06:31:32.243Z,24.94
2018-07-30T06:32:32.259Z,25.02
2018-07-30T06:33:32.279Z,24.97
2018-07-30T06:34:32.314Z,25.02
2018-07-30T06:35:32.350Z,24.97
2018-07-30T06:36:32.361Z,25.01
2018-07-30T06:37:32.401Z,25.19
2018-07-30T06:38:32.493Z,25.10
2018-07-30T06:39:32.448Z,25.05
2018-07-30T06:40:32.488Z,25.01
2018-07-30T06:41:32.506Z,24.90
2018-07-30T06:42:32.534Z,24.87
2018-07-30T06:43:32.568Z,24.79
2018-07-30T06:44:32.580Z,24.92
2018-07-30T06:45:32.599Z,24.91
2018-07-30T06:46:32.634Z,24.83
2018-07-30T06:47:32.672Z,24.92
2018-07-30T06:48:32.685Z,24.90
2018-07-30T06:49:32.703Z,24.87
2018-07-30T06:50:32.743Z,24.91
2018-07-30T06:51:32.757Z,24.92
2018-07-30T06:52:32.798Z,24.85
2018-07-30T06:53:32.815Z,24.64
2018-07-30T06:54:32.842Z,24.71
2018-07-30T06:55:32.899Z,24.95
2018-07-30T06:56:32.904Z,24.98
2018-07-30T06:57:32.918Z,25.02
2018-07-30T06:58:32.964Z,25.06
2018-07-30T06:59:32.976Z,25.02
2018-07-30T07:00:33.003Z,24.97
2018-07-30T07:01:33.027Z,25.02
2018-07-30T07:02:33.050Z,25.27
2018-07-30T07:03:33.087Z,25.25
2018-07-30T07:04:33.106Z,25.25
2018-07-30T07:05:33.134Z,25.25
2018-07-30T07:06:33.167Z,25.28
2018-07-30T07:07:33.191Z,25.32
2018-07-30T07:08:33.276Z,25.34
2018-07-30T07:09:33.296Z,25.25
2018-07-30T07:10:33.280Z,25.30
2018-07-30T07:11:33.292Z,25.16
2018-07-30T07:12:33.318Z,25.22
2018-07-30T07:13:33.356Z,25.32
2018-07-30T07:14:33.377Z,25.31
2018-07-30T07:15:33.421Z,25.30
2018-07-30T07:16:33.496Z,25.34
2018-07-30T07:17:33.468Z,25.38
2018-07-30T07:18:33.544Z,25.50
2018-07-30T07:19:33.523Z,25.49
2018-07-30T07:20:33.537Z,25.59
2018-07-30T07:21:33.614Z,25.57
2018-07-30T07:22:33.586Z,25.54
2018-07-30T07:23:33.617Z,25.64
2018-07-30T07:24:33.653Z,25.64
2018-07-30T07:25:33.681Z,25.61
2018-07-30T07:26:33.723Z,25.56
2018-07-30T07:27:33.734Z,25.62
2018-07-30T07:28:33.786Z,25.65
2018-07-30T07:29:33.777Z,25.67
2018-07-30T07:30:33.817Z,25.69
2018-07-30T07:31:33.830Z,25.56
2018-07-30T07:32:33.882Z,25.62
2018-07-30T07:33:33.883Z,25.72
2018-07-30T07:34:33.915Z,25.77
2018-07-30T07:35:33.940Z,25.77
2018-07-30T07:36:33.978Z,25.77
2018-07-30T07:37:34.001Z,25.75
2018-07-30T07:38:34.020Z,25.82
2018-07-30T07:39:34.057Z,25.74
2018-07-30T07:40:34.080Z,25.77
2018-07-30T07:41:34.110Z,25.82
2018-07-30T07:43:34.154Z,25.93
2018-07-30T07:44:34.184Z,25.98
2018-07-30T07:45:34.208Z,25.97
2018-07-30T07:46:34.282Z,25.84
2018-07-30T07:47:34.270Z,25.97
2018-07-30T07:48:34.298Z,25.97
2018-07-30T07:49:34.327Z,25.97
2018-07-30T07:50:34.459Z,25.93
2018-07-30T07:51:34.376Z,25.90
2018-07-30T07:52:34.405Z,26.04
2018-07-30T07:53:34.424Z,26.01
2018-07-30T07:54:34.471Z,26.01
2018-07-30T07:55:34.492Z,25.89
2018-07-30T07:56:34.517Z,26.01
2018-07-30T07:57:34.538Z,26.04
2018-07-30T07:58:34.601Z,25.98
2018-07-30T07:59:34.602Z,26.02
2018-07-30T08:00:34.625Z,26.12
2018-07-30T08:01:34.657Z,26.04
2018-07-30T08:02:34.688Z,26.04
2018-07-30T08:03:34.710Z,26.09
2018-07-30T08:04:34.750Z,26.06
2018-07-30T08:05:34.782Z,26.18
2018-07-30T08:06:34.791Z,26.20
2018-07-30T08:07:34.814Z,26.27
2018-07-30T08:08:34.840Z,26.27
2018-07-30T08:09:34.918Z,26.40
2018-07-30T08:10:34.916Z,26.44
2018-07-30T08:11:34.925Z,26.42
2018-07-30T08:12:34.947Z,26.32
2018-07-30T08:13:34.995Z,26.35
2018-07-30T08:14:35.035Z,26.39
2018-07-30T08:15:35.052Z,26.40
2018-07-30T08:16:35.065Z,26.47
2018-07-30T08:17:35.106Z,26.50
2018-07-30T08:18:35.114Z,26.49
2018-07-30T08:19:35.149Z,26.47
2018-07-30T08:20:35.178Z,26.46
2018-07-30T08:21:35.200Z,26.46
2018-07-30T08:22:35.239Z,26.54
2018-07-30T08:23:35.259Z,26.47
2018-07-30T08:24:35.289Z,26.62
2018-07-30T08:25:35.664Z,26.83
2018-07-30T08:26:35.334Z,26.79
2018-07-30T08:27:35.371Z,26.73
2018-07-30T08:28:35.387Z,26.73
2018-07-30T08:29:35.424Z,26.64
2018-07-30T08:30:35.455Z,26.77
2018-07-30T08:31:35.485Z,26.77
2018-07-30T08:32:35.512Z,26.73
2018-07-30T08:33:35.529Z,26.74
2018-07-30T08:34:35.561Z,26.80
2018-07-30T08:35:35.590Z,26.73
2018-07-30T08:36:35.609Z,26.76
2018-07-30T08:37:35.642Z,26.79
2018-07-30T08:38:35.666Z,26.74
2018-07-30T08:39:35.701Z,26.81
2018-07-30T08:40:35.878Z,26.80
2018-07-30T08:41:35.755Z,26.81
2018-07-30T08:42:35.808Z,26.87
2018-07-30T08:43:35.808Z,27.05
2018-07-30T08:44:35.964Z,26.99
2018-07-30T08:45:35.866Z,26.89
2018-07-30T08:46:35.913Z,26.87
2018-07-30T08:47:35.920Z,26.98
2018-07-30T08:48:35.941Z,27.02
2018-07-30T08:49:35.976Z,27.10
2018-07-30T08:50:36.004Z,27.16
2018-07-30T08:51:36.030Z,27.02
2018-07-30T08:52:36.061Z,26.99
2018-07-30T08:53:36.091Z,27.02
2018-07-30T08:54:36.127Z,27.04
2018-07-30T08:55:36.147Z,27.14
2018-07-30T08:56:36.179Z,27.28
2018-07-30T08:57:36.195Z,27.26
2018-07-30T08:58:36.238Z,27.06
2018-07-30T08:59:36.276Z,27.14
2018-07-30T09:00:36.284Z,27.10
2018-07-30T09:01:36.323Z,27.13
2018-07-30T09:02:36.350Z,27.28
2018-07-30T09:03:36.384Z,27.41
2018-07-30T09:04:36.555Z,27.33
2018-07-30T09:05:36.422Z,27.42
2018-07-30T09:06:36.481Z,27.28
2018-07-30T09:07:36.482Z,27.48
2018-07-30T09:08:36.521Z,27.53
2018-07-30T09:09:36.554Z,27.46
2018-07-30T09:10:36.571Z,27.50
2018-07-30T09:11:36.592Z,27.59
2018-07-30T09:12:36.716Z,27.50
2018-07-30T09:13:36.657Z,27.39
2018-07-30T09:14:36.691Z,27.48
2018-07-30T09:15:36.717Z,27.43
2018-07-30T09:16:36.742Z,27.71
2018-07-30T09:17:36.772Z,27.67
2018-07-30T09:18:36.798Z,27.77
2018-07-30T09:19:36.824Z,27.74
2018-07-30T09:20:36.856Z,27.59
2018-07-30T09:21:36.883Z,27.53
2018-07-30T09:22:36.913Z,27.46
2018-07-30T09:23:36.941Z,27.41
2018-07-30T09:24:36.966Z,27.66
2018-07-30T09:25:36.994Z,27.80
2018-07-30T09:26:37.029Z,27.70
2018-07-30T09:27:37.053Z,27.70
2018-07-30T09:28:37.086Z,27.73
2018-07-30T09:29:37.124Z,27.84
2018-07-30T09:30:37.139Z,27.94
2018-07-30T09:31:37.172Z,27.74
2018-07-30T09:32:37.265Z,28.03
2018-07-30T09:33:37.233Z,28.13
2018-07-30T09:34:37.261Z,27.95
2018-07-30T09:35:37.280Z,28.04
2018-07-30T09:36:37.306Z,28.04
2018-07-30T09:37:37.342Z,27.99
2018-07-30T09:38:37.415Z,27.92
2018-07-30T09:39:37.453Z,27.86
2018-07-30T09:40:37.423Z,28.17
2018-07-30T09:41:37.463Z,28.32
2018-07-30T09:43:37.514Z,28.09
2018-07-30T09:44:37.636Z,27.94
2018-07-30T09:45:37.585Z,27.84
2018-07-30T09:46:37.598Z,28.07
2018-07-30T09:47:37.637Z,27.98
2018-07-30T09:48:37.663Z,28.11
2018-07-30T09:49:37.690Z,28.07
2018-07-30T09:50:37.783Z,28.14
2018-07-30T09:51:37.742Z,28.17
2018-07-30T09:52:37.780Z,28.06
2018-07-30T09:53:37.805Z,28.03
2018-07-30T09:54:37.850Z,28.17
2018-07-30T09:55:37.859Z,28.04
2018-07-30T09:56:37.893Z,28.04
2018-07-30T09:57:37.936Z,28.25
2018-07-30T09:58:37.955Z,28.41
2018-07-30T09:59:37.974Z,28.33
2018-07-30T10:00:38.004Z,28.35
2018-07-30T10:01:38.031Z,28.35
2018-07-30T10:02:38.061Z,28.21
2018-07-30T10:04:38.135Z,28.17
2018-07-30T10:05:38.164Z,28.07
2018-07-30T10:06:38.183Z,28.38
2018-07-30T10:07:38.208Z,28.46
2018-07-30T10:08:38.245Z,28.40
2018-07-30T10:09:38.270Z,28.46
2018-07-30T10:10:38.293Z,28.75
2018-07-30T10:11:38.352Z,28.84
2018-07-30T10:12:38.357Z,28.72
2018-07-30T10:13:38.390Z,28.62
2018-07-30T10:14:38.445Z,28.60
2018-07-30T10:15:38.444Z,28.68
2018-07-30T10:16:38.474Z,28.88
2018-07-30T10:17:38.551Z,28.97
2018-07-30T10:18:38.535Z,28.90
2018-07-30T10:19:38.559Z,29.04
2018-07-30T10:20:38.609Z,28.97
2018-07-30T10:21:38.621Z,29.03
2018-07-30T10:22:38.648Z,29.20
2018-07-30T10:23:38.777Z,29.31
2018-07-30T10:24:38.711Z,29.16
2018-07-30T10:25:38.739Z,29.07
2018-07-30T10:26:38.773Z,29.10
2018-07-30T10:27:38.800Z,28.97
2018-07-30T10:28:38.828Z,28.97
2018-07-30T10:29:38.860Z,28.87
2018-07-30T10:30:38.914Z,28.63
2018-07-30T10:31:38.928Z,28.51
2018-07-30T10:32:38.942Z,28.62
2018-07-30T10:33:38.979Z,28.78
2018-07-30T10:34:39.036Z,28.81
2018-07-30T10:35:39.036Z,28.87
2018-07-30T10:37:39.100Z,29.00
2018-07-30T10:38:39.118Z,28.97
2018-07-30T10:39:39.148Z,29.13
2018-07-30T10:40:39.183Z,28.90
2018-07-30T10:41:39.239Z,29.04
2018-07-30T10:42:39.245Z,29.04
2018-07-30T10:43:39.266Z,29.07
2018-07-30T10:44:39.300Z,28.85
2018-07-30T10:45:39.335Z,28.75
2018-07-30T10:46:39.361Z,28.72
2018-07-30T10:47:39.393Z,28.82
2018-07-30T10:48:39.420Z,28.78
2018-07-30T10:49:39.455Z,28.81
2018-07-30T10:50:39.490Z,28.88
2018-07-30T10:51:39.513Z,28.90
2018-07-30T10:52:39.539Z,28.97
2018-07-30T10:53:39.588Z,29.04
2018-07-30T10:55:39.626Z,29.29
2018-07-30T10:56:39.657Z,29.26
2018-07-30T10:57:39.689Z,29.26
2018-07-30T10:58:39.714Z,29.20
2018-07-30T10:59:39.749Z,29.59
2018-07-30T11:00:39.805Z,29.72
2018-07-30T11:01:39.809Z,29.53
2018-07-30T11:02:39.841Z,29.22
2018-07-30T11:03:39.870Z,29.11
2018-07-30T11:04:39.899Z,29.10
2018-07-30T11:05:39.943Z,29.44
2018-07-30T11:06:39.967Z,29.40
2018-07-30T11:07:40.025Z,29.28
2018-07-30T11:08:40.020Z,29.35
2018-07-30T11:09:40.121Z,29.29
2018-07-30T11:10:40.082Z,29.29
2018-07-30T11:11:40.106Z,29.25
2018-07-30T11:12:40.129Z,29.20
2018-07-30T11:13:40.179Z,29.16
2018-07-30T11:14:40.245Z,29.29
2018-07-30T11:15:40.260Z,29.33
2018-07-30T11:16:40.263Z,29.49
2018-07-30T11:17:40.313Z,29.53
2018-07-30T11:18:40.324Z,29.34
2018-07-30T11:19:40.349Z,29.35
2018-07-30T11:20:40.386Z,29.53
2018-07-30T11:21:40.455Z,29.60
2018-07-30T11:22:40.460Z,29.56
2018-07-30T11:23:40.471Z,29.60
2018-07-30T11:24:40.506Z,29.66
2018-07-30T11:25:40.531Z,29.70
2018-07-30T11:26:40.556Z,29.75
2018-07-30T11:27:40.583Z,29.97
2018-07-30T11:28:40.633Z,29.89
2018-07-30T11:29:40.648Z,29.72
2018-07-30T11:30:40.682Z,29.60
2018-07-30T11:31:40.713Z,29.66
2018-07-30T11:32:40.736Z,29.65
2018-07-30T11:33:40.856Z,29.62
2018-07-30T11:34:40.813Z,29.63
2018-07-30T11:35:40.824Z,29.66
2018-07-30T11:36:40.860Z,29.87
2018-07-30T11:37:40.894Z,29.99
2018-07-30T11:38:40.918Z,29.93
2018-07-30T11:39:40.964Z,29.84
2018-07-30T11:40:40.986Z,29.94
2018-07-30T11:41:41.015Z,30.11
2018-07-30T11:42:41.040Z,30.52
2018-07-30T11:43:41.157Z,30.78
2018-07-30T11:44:41.101Z,30.71
2018-07-30T11:45:41.166Z,30.75
2018-07-30T11:46:41.168Z,30.80
2018-07-30T11:47:41.205Z,30.53
2018-07-30T11:48:41.330Z,30.57
2018-07-30T11:49:41.268Z,30.56
2018-07-30T11:50:41.292Z,30.94
2018-07-30T11:51:41.321Z,31.01
2018-07-30T11:52:41.363Z,30.80
2018-07-30T11:53:41.381Z,30.56
2018-07-30T11:54:41.422Z,30.56
2018-07-30T11:55:41.442Z,30.54
2018-07-30T11:56:41.478Z,30.50
2018-07-30T11:57:41.507Z,30.59
2018-07-30T11:58:41.549Z,30.57
2018-07-30T11:59:41.570Z,30.46
2018-07-30T12:00:41.604Z,30.54
2018-07-30T12:01:41.684Z,30.50
2018-07-30T12:02:41.676Z,30.43
2018-07-30T12:03:41.695Z,30.38
2018-07-30T12:04:41.728Z,30.43
2018-07-30T12:05:41.758Z,30.56
2018-07-30T12:06:41.810Z,30.43
2018-07-30T12:07:41.822Z,30.43
2018-07-30T12:08:41.851Z,30.49
2018-07-30T12:09:41.888Z,30.47
2018-07-30T12:11:41.947Z,30.33
2018-07-30T12:12:41.979Z,30.45
2018-07-30T12:13:42.009Z,30.52
2018-07-30T12:14:42.050Z,30.52
2018-07-30T12:15:42.075Z,30.46
2018-07-30T12:16:42.107Z,30.54
2018-07-30T12:17:42.149Z,30.59
2018-07-30T12:18:42.169Z,30.56
2018-07-30T12:19:42.203Z,30.56
2018-07-30T12:20:42.228Z,30.71
2018-07-30T12:21:42.333Z,30.54
2018-07-30T12:22:42.299Z,30.49
2018-07-30T12:23:42.348Z,30.49
2018-07-30T12:24:42.362Z,30.56
2018-07-30T12:25:42.400Z,30.47
2018-07-30T12:26:42.434Z,30.54
2018-07-30T12:27:42.456Z,30.54
2018-07-30T12:28:42.497Z,30.62
2018-07-30T12:29:42.519Z,30.56
2018-07-30T12:30:42.596Z,30.53
2018-07-30T12:31:42.579Z,30.56
2018-07-30T12:32:42.616Z,30.72
2018-07-30T12:33:42.639Z,30.54
2018-07-30T12:34:42.682Z,30.76
2018-07-30T12:35:42.718Z,30.86
2018-07-30T12:36:42.734Z,31.17
2018-07-30T12:37:42.773Z,31.23
2018-07-30T12:38:42.802Z,31.39
2018-07-30T12:39:42.842Z,30.98
2018-07-30T12:41:42.894Z,30.71
2018-07-30T12:42:42.923Z,30.99
2018-07-30T12:43:42.958Z,30.89
2018-07-30T12:44:42.987Z,30.86
2018-07-30T12:45:43.019Z,31.05
2018-07-30T12:46:43.061Z,30.89
2018-07-30T12:47:43.106Z,30.80
2018-07-30T12:48:43.122Z,31.15
2018-07-30T12:49:43.145Z,31.23
2018-07-30T12:50:43.184Z,31.39
2018-07-30T12:51:43.209Z,31.06
2018-07-30T12:52:43.261Z,31.13
2018-07-30T12:53:43.290Z,31.05
2018-07-30T12:54:43.324Z,30.84
2018-07-30T12:55:43.336Z,30.78
2018-07-30T12:56:43.366Z,30.71
2018-07-30T12:57:43.399Z,30.75
2018-07-30T12:58:43.445Z,30.72
2018-07-30T12:59:43.471Z,30.74
2018-07-30T13:00:43.497Z,30.71
2018-07-30T13:01:43.527Z,30.78
2018-07-30T13:02:43.596Z,30.80
2018-07-30T13:04:43.628Z,31.02
2018-07-30T13:05:43.660Z,31.23
2018-07-30T13:06:43.691Z,31.48
2018-07-30T13:07:43.713Z,31.49
2018-07-30T13:08:43.744Z,31.40
2018-07-30T13:09:43.772Z,31.28